Time;durP1;ratioP1;P1;durP2;ratioP2;P2;SDS_P1;SDS_P2;PMS_P1;PMS_P2;Temp;Humidity;BMP_temperature;BMP_pressure;BME280_temperature;BME280_humidity;BME280_pressure;Samples;Min_cycle;Max_cycle;Signal;HPM_P1;HPM_P2
2021/12/13 00:04:18;;;;;;;30.53;13.47;;;;;;;;;;6207121;22;20222;-87
2021/12/13 00:07:25;;;;;;;35.17;13.53;;;;;;;;;;6217243;23;20230;-89
2021/12/13 00:10:33;;;;;;;29.83;13.93;;;;;;;;;;6217349;23;20167;-88
2021/12/13 00:13:40;;;;;;;30.67;14.10;;;;;;;;;;6216364;23;20191;-87
2021/12/13 00:16:48;;;;;;;29.70;14.77;;;;;;;;;;6217484;23;20168;-90
2021/12/13 00:19:59;;;;;;;34.87;14.70;;;;;;;;;;6218182;23;20178;-88
2021/12/13 00:23:06;;;;;;;29.63;14.50;;;;;;;;;;6217158;23;20194;-89
2021/12/13 00:26:13;;;;;;;30.17;14.37;;;;;;;;;;6217762;23;20215;-91
2021/12/13 00:29:19;;;;;;;28.97;14.20;;;;;;;;;;6216684;23;20171;-91
2021/12/13 00:32:28;;;;;;;28.43;14.53;;;;;;;;;;6235773;23;20186;-88
2021/12/13 00:35:38;;;;;;;32.57;14.77;;;;;;;;;;6215241;23;20239;-90
2021/12/13 00:38:47;;;;;;;29.43;14.23;;;;;;;;;;6216067;23;20170;-89
2021/12/13 00:41:53;;;;;;;30.20;13.73;;;;;;;;;;6215733;23;20151;-90
2021/12/13 00:45:05;;;;;;;29.97;13.70;;;;;;;;;;6214824;23;20189;-88
2021/12/13 00:48:10;;;;;;;31.23;13.97;;;;;;;;;;6218781;23;20159;-90
2021/12/13 00:51:20;;;;;;;28.70;14.23;;;;;;;;;;6214485;23;20170;-88
2021/12/13 00:54:27;;;;;;;30.83;14.80;;;;;;;;;;6215513;23;20202;-88
2021/12/13 00:57:44;;;;;;;33.87;14.83;;;;;;;;;;6214643;23;20198;-86
2021/12/13 01:00:51;;;;;;;30.13;14.63;;;;;;;;;;6213628;23;20175;-87
2021/12/13 01:03:59;;;;;;;28.30;13.57;;;;;;;;;;6216250;23;20186;-91
2021/12/13 01:07:48;;;;;;;28.43;13.03;;;;;;;;;;6214285;23;20618;-87
2021/12/13 01:11:11;;;;;;;30.07;13.57;;;;;;;;;;6216745;23;20167;-90
2021/12/13 01:14:38;;;;;;;26.17;13.50;;;;;;;;;;6217783;23;20183;-89
2021/12/13 01:17:53;;;;;;;28.27;13.70;;;;;;;;;;6216801;23;20172;-86
2021/12/13 01:21:08;;;;;;;29.50;13.17;;;;;;;;;;6216086;23;20175;-89
2021/12/13 01:24:20;;;;;;;33.00;14.83;;;;;;;;;;6215220;23;20168;-89
2021/12/13 01:27:29;;;;;;;32.40;14.80;;;;;;;;;;6214499;23;20175;-91
2021/12/13 01:30:37;;;;;;;36.60;15.47;;;;;;;;;;6215253;23;20237;-92
2021/12/13 01:33:45;;;;;;;32.10;15.40;;;;;;;;;;6213779;23;20194;-90
2021/12/13 01:37:01;;;;;;;32.87;14.80;;;;;;;;;;6217182;23;20586;-90
2021/12/13 01:40:13;;;;;;;31.07;13.30;;;;;;;;;;6216069;23;20164;-88
2021/12/13 01:43:19;;;;;;;29.97;14.03;;;;;;;;;;6218488;23;20155;-89
2021/12/13 01:46:25;;;;;;;32.70;14.63;;;;;;;;;;6216631;23;20163;-88
2021/12/13 01:49:32;;;;;;;30.10;14.00;;;;;;;;;;6217379;23;20167;-88
2021/12/13 01:52:38;;;;;;;33.57;14.93;;;;;;;;;;6217496;23;20190;-88
2021/12/13 01:55:47;;;;;;;29.93;14.40;;;;;;;;;;6218257;23;20195;-88
2021/12/13 01:59:03;;;;;;;31.47;14.13;;;;;;;;;;6216980;23;20171;-89
2021/12/13 02:02:20;;;;;;;34.17;15.17;;;;;;;;;;6215994;23;20179;-89
2021/12/13 02:05:27;;;;;;;31.80;15.23;;;;;;;;;;6216595;23;20199;-90
2021/12/13 02:08:32;;;;;;;28.83;13.13;;;;;;;;;;6218554;23;20166;-88
2021/12/13 02:11:39;;;;;;;30.73;13.97;;;;;;;;;;6216600;23;20167;-87
2021/12/13 02:14:49;;;;;;;32.23;14.87;;;;;;;;;;6219215;23;20175;-88
2021/12/13 02:17:53;;;;;;;36.97;15.30;;;;;;;;;;6218339;23;20179;-88
2021/12/13 02:21:05;;;;;;;35.87;15.27;;;;;;;;;;6218294;23;20210;-87
2021/12/13 02:24:13;;;;;;;35.67;16.80;;;;;;;;;;6218564;23;20175;-87
2021/12/13 02:27:21;;;;;;;44.27;17.67;;;;;;;;;;6218453;23;20167;-87
2021/12/13 02:30:29;;;;;;;37.20;16.23;;;;;;;;;;6217000;23;20167;-89
2021/12/13 02:33:36;;;;;;;39.27;16.63;;;;;;;;;;6215478;23;20650;-89
2021/12/13 02:36:42;;;;;;;36.77;17.17;;;;;;;;;;6218077;23;20215;-91
2021/12/13 02:39:56;;;;;;;37.53;16.47;;;;;;;;;;6216924;23;20237;-90
2021/12/13 02:43:01;;;;;;;37.33;16.60;;;;;;;;;;6217995;23;20175;-89
2021/12/13 02:46:06;;;;;;;36.70;16.43;;;;;;;;;;6217272;23;20175;-85
2021/12/13 02:49:15;;;;;;;38.77;17.23;;;;;;;;;;6216463;23;20167;-87
2021/12/13 02:52:21;;;;;;;39.13;16.27;;;;;;;;;;6218361;23;20207;-89
2021/12/13 02:55:28;;;;;;;41.53;16.80;;;;;;;;;;6217567;23;20187;-88
2021/12/13 02:58:34;;;;;;;41.00;18.63;;;;;;;;;;6218625;23;20191;-88
2021/12/13 03:01:47;;;;;;;37.13;16.80;;;;;;;;;;6235070;23;20233;-89
2021/12/13 03:04:52;;;;;;;36.90;16.53;;;;;;;;;;6216762;23;20291;-90
2021/12/13 03:08:00;;;;;;;39.93;16.77;;;;;;;;;;6217060;23;20170;-89
2021/12/13 03:11:09;;;;;;;37.27;16.77;;;;;;;;;;6216796;23;20171;-90
2021/12/13 03:14:17;;;;;;;34.57;15.93;;;;;;;;;;6218296;23;20614;-88
2021/12/13 03:17:23;;;;;;;33.43;16.10;;;;;;;;;;6217551;23;20172;-87
2021/12/13 03:20:48;;;;;;;36.33;15.70;;;;;;;;;;6215910;23;20171;-88
2021/12/13 03:24:06;;;;;;;37.87;15.20;;;;;;;;;;6217659;23;20169;-87
2021/12/13 03:27:29;;;;;;;32.90;15.30;;;;;;;;;;6216411;23;20283;-86
2021/12/13 03:30:40;;;;;;;33.50;15.10;;;;;;;;;;6215112;23;20171;-91
2021/12/13 03:33:50;;;;;;;30.57;14.60;;;;;;;;;;6216761;23;20677;-90
2021/12/13 03:36:58;;;;;;;33.47;14.67;;;;;;;;;;6215880;23;20171;-85
2021/12/13 03:40:07;;;;;;;33.67;14.70;;;;;;;;;;6215263;23;20171;-88
2021/12/13 03:43:13;;;;;;;34.30;15.07;;;;;;;;;;6215212;23;20166;-88
2021/12/13 03:46:21;;;;;;;36.90;16.07;;;;;;;;;;6213946;23;20179;-87
2021/12/13 03:49:27;;;;;;;31.73;14.73;;;;;;;;;;6215418;23;20172;-87
2021/12/13 03:52:32;;;;;;;34.03;14.57;;;;;;;;;;6215454;23;20194;-86
2021/12/13 03:55:39;;;;;;;33.70;15.30;;;;;;;;;;6213963;23;20174;-89
2021/12/13 03:58:46;;;;;;;29.13;15.00;;;;;;;;;;6214178;23;20480;-89
2021/12/13 04:01:55;;;;;;;36.70;15.93;;;;;;;;;;6214084;23;20146;-87
2021/12/13 04:05:01;;;;;;;32.97;15.33;;;;;;;;;;6214687;23;20235;-88
2021/12/13 04:08:09;;;;;;;30.17;14.63;;;;;;;;;;6214107;23;20167;-86
2021/12/13 04:11:14;;;;;;;30.90;14.97;;;;;;;;;;6214325;23;20500;-86
2021/12/13 04:14:25;;;;;;;32.63;14.57;;;;;;;;;;6214706;23;20650;-89
2021/12/13 04:17:42;;;;;;;33.50;15.63;;;;;;;;;;6216440;23;20159;-88
2021/12/13 04:20:47;;;;;;;31.13;14.30;;;;;;;;;;6214017;23;20254;-89
2021/12/13 04:23:54;;;;;;;31.97;14.80;;;;;;;;;;6215535;23;20164;-86
2021/12/13 04:27:01;;;;;;;30.53;14.17;;;;;;;;;;6214310;23;20167;-86
2021/12/13 04:30:10;;;;;;;28.33;12.87;;;;;;;;;;6197618;23;20242;-89
2021/12/13 04:33:20;;;;;;;28.57;12.93;;;;;;;;;;6213742;23;20230;-88
2021/12/13 04:36:30;;;;;;;28.43;12.57;;;;;;;;;;6214090;23;20247;-89
2021/12/13 04:39:37;;;;;;;26.07;12.27;;;;;;;;;;6214243;23;20171;-89
2021/12/13 04:42:43;;;;;;;29.83;14.10;;;;;;;;;;6213675;23;20174;-90
2021/12/13 04:45:50;;;;;;;28.00;13.13;;;;;;;;;;6211723;23;20175;-88
2021/12/13 04:48:58;;;;;;;27.10;12.97;;;;;;;;;;6212054;23;20210;-90
2021/12/13 04:52:06;;;;;;;26.30;11.90;;;;;;;;;;6213449;23;20155;-88
2021/12/13 04:55:13;;;;;;;24.17;11.93;;;;;;;;;;6212918;23;20179;-89
2021/12/13 04:58:19;;;;;;;27.33;12.27;;;;;;;;;;6214835;23;20235;-89
2021/12/13 05:01:29;;;;;;;27.60;12.17;;;;;;;;;;6212689;23;20231;-87
2021/12/13 05:04:35;;;;;;;33.90;14.07;;;;;;;;;;6213618;23;20690;-87
2021/12/13 05:07:42;;;;;;;26.40;12.53;;;;;;;;;;6215478;23;20754;-90
2021/12/13 05:10:48;;;;;;;25.80;12.10;;;;;;;;;;6214795;23;20162;-88
2021/12/13 05:13:54;;;;;;;26.20;12.70;;;;;;;;;;6216197;23;20194;-89
2021/12/13 05:17:00;;;;;;;26.33;11.90;;;;;;;;;;6216561;23;20170;-86
2021/12/13 05:20:13;;;;;;;29.93;12.73;;;;;;;;;;6214730;23;20249;-87
2021/12/13 05:23:21;;;;;;;25.20;12.27;;;;;;;;;;6211885;23;20175;-89
2021/12/13 05:26:33;;;;;;;27.93;12.17;;;;;;;;;;6216515;23;20167;-88
2021/12/13 05:29:40;;;;;;;24.30;10.97;;;;;;;;;;6233336;23;20167;-87
2021/12/13 05:32:47;;;;;;;25.83;12.27;;;;;;;;;;6216975;23;20241;-90
2021/12/13 05:35:56;;;;;;;25.80;11.77;;;;;;;;;;6215150;23;20163;-87
2021/12/13 05:39:05;;;;;;;27.67;12.30;;;;;;;;;;6215448;23;20171;-87
2021/12/13 05:42:12;;;;;;;28.77;11.67;;;;;;;;;;6217815;23;20163;-87
2021/12/13 05:45:18;;;;;;;27.10;12.53;;;;;;;;;;6216375;23;20259;-92
2021/12/13 05:48:24;;;;;;;22.27;10.63;;;;;;;;;;6214933;23;20175;-88
2021/12/13 05:51:34;;;;;;;25.87;11.97;;;;;;;;;;6218613;23;20175;-87
2021/12/13 05:54:42;;;;;;;23.87;11.03;;;;;;;;;;6215671;23;20198;-86
2021/12/13 05:57:52;;;;;;;27.20;11.37;;;;;;;;;;6233398;23;20203;-88
2021/12/13 06:00:59;;;;;;;24.17;11.47;;;;;;;;;;6215348;23;20186;-89
2021/12/13 06:04:12;;;;;;;22.90;10.53;;;;;;;;;;6216662;23;20154;-92
2021/12/13 06:07:21;;;;;;;24.53;10.90;;;;;;;;;;6216569;23;20175;-87
2021/12/13 06:10:29;;;;;;;20.90;10.37;;;;;;;;;;6218138;23;20278;-88
2021/12/13 06:13:53;;;;;;;24.20;10.47;;;;;;;;;;6215320;23;20186;-88
2021/12/13 06:17:04;;;;;;;30.67;12.13;;;;;;;;;;6215921;23;20224;-90
2021/12/13 06:20:21;;;;;;;24.57;10.87;;;;;;;;;;6216839;23;20187;-86
2021/12/13 06:23:29;;;;;;;22.10;10.90;;;;;;;;;;6217178;23;20186;-87
2021/12/13 06:26:35;;;;;;;24.17;11.30;;;;;;;;;;6215798;23;20168;-87
2021/12/13 06:29:47;;;;;;;24.93;11.70;;;;;;;;;;6218052;23;20171;-87
2021/12/13 06:32:57;;;;;;;24.00;10.83;;;;;;;;;;6215967;23;20494;-87
2021/12/13 06:36:03;;;;;;;25.60;11.27;;;;;;;;;;6217207;23;20732;-87
2021/12/13 06:39:15;;;;;;;33.80;14.03;;;;;;;;;;6216214;23;20158;-88
2021/12/13 06:42:26;;;;;;;28.37;12.60;;;;;;;;;;6216544;23;20171;-88
2021/12/13 06:45:32;;;;;;;36.93;13.87;;;;;;;;;;6217871;23;20657;-86
2021/12/13 06:48:39;;;;;;;31.57;14.70;;;;;;;;;;6216594;23;20179;-86
2021/12/13 06:51:46;;;;;;;30.90;12.77;;;;;;;;;;6215365;23;20702;-87
2021/12/13 06:54:58;;;;;;;31.30;12.67;;;;;;;;;;6215996;23;20686;-89
2021/12/13 06:58:12;;;;;;;30.17;12.37;;;;;;;;;;6214816;23;20166;-84
2021/12/13 07:01:18;;;;;;;33.10;13.50;;;;;;;;;;6216388;23;20179;-88
2021/12/13 07:04:24;;;;;;;37.53;14.30;;;;;;;;;;6218409;23;20237;-88
2021/12/13 07:07:31;;;;;;;33.83;13.00;;;;;;;;;;6216110;23;20622;-87
2021/12/13 07:10:46;;;;;;;34.83;14.67;;;;;;;;;;6216988;23;20150;-88
2021/12/13 07:14:01;;;;;;;35.57;14.53;;;;;;;;;;6215329;23;20195;-88
2021/12/13 07:17:12;;;;;;;33.23;13.50;;;;;;;;;;6215923;23;20250;-87
2021/12/13 07:20:17;;;;;;;39.70;13.90;;;;;;;;;;6217444;23;20560;-88
2021/12/13 07:23:22;;;;;;;37.13;13.67;;;;;;;;;;6214691;23;20167;-88
2021/12/13 07:26:37;;;;;;;37.60;13.00;;;;;;;;;;6218886;23;20171;-89
2021/12/13 07:29:45;;;;;;;33.73;13.00;;;;;;;;;;6218830;23;20222;-89
2021/12/13 07:32:53;;;;;;;34.83;13.40;;;;;;;;;;6218389;23;20167;-89
2021/12/13 07:36:04;;;;;;;30.20;11.23;;;;;;;;;;6221567;23;20234;-90
2021/12/13 07:39:15;;;;;;;28.97;11.30;;;;;;;;;;6218232;23;20847;-89
2021/12/13 07:42:21;;;;;;;34.10;12.07;;;;;;;;;;6219200;23;20167;-89
2021/12/13 07:45:28;;;;;;;32.40;11.37;;;;;;;;;;6216083;23;20174;-89
2021/12/13 07:48:35;;;;;;;30.80;11.73;;;;;;;;;;6218410;23;20154;-89
2021/12/13 07:51:41;;;;;;;29.47;10.57;;;;;;;;;;6216008;23;20220;-90
2021/12/13 07:54:46;;;;;;;32.87;11.00;;;;;;;;;;6217878;23;20236;-88
2021/12/13 07:57:53;;;;;;;31.87;10.83;;;;;;;;;;6215781;23;20175;-90
2021/12/13 08:01:08;;;;;;;34.37;11.23;;;;;;;;;;6216466;23;20172;-89
2021/12/13 08:04:14;;;;;;;30.90;11.63;;;;;;;;;;6219624;23;20203;-89
2021/12/13 08:07:24;;;;;;;28.03;11.20;;;;;;;;;;6216011;23;20497;-89
2021/12/13 09:09:19;;;;;;;33.03;11.60;;;;;;;;;;6172652;22;20245;-88
2021/12/13 09:12:30;;;;;;;31.73;12.33;;;;;;;;;;6213996;23;20159;-88
2021/12/13 09:15:35;;;;;;;28.43;10.53;;;;;;;;;;6213977;23;20182;-87
2021/12/13 09:18:41;;;;;;;28.43;9.13;;;;;;;;;;6214406;23;20244;-89
2021/12/13 09:21:48;;;;;;;26.40;9.37;;;;;;;;;;6215751;23;20190;-90
2021/12/13 09:24:56;;;;;;;28.33;10.00;;;;;;;;;;6216649;23;20163;-92
2021/12/13 09:28:03;;;;;;;27.20;9.50;;;;;;;;;;6217610;23;20170;-88
2021/12/13 09:31:11;;;;;;;26.17;9.87;;;;;;;;;;6216619;23;20171;-89
2021/12/13 09:34:18;;;;;;;25.93;9.70;;;;;;;;;;6213748;23;20246;-88
2021/12/13 09:37:23;;;;;;;29.27;10.63;;;;;;;;;;6214262;23;20631;-89
2021/12/13 09:40:39;;;;;;;27.57;9.93;;;;;;;;;;6217147;23;20206;-90
2021/12/13 09:43:47;;;;;;;27.13;10.80;;;;;;;;;;6215107;23;20167;-87
2021/12/13 09:46:53;;;;;;;25.17;9.80;;;;;;;;;;6215932;23;20247;-92
2021/12/13 09:50:05;;;;;;;29.37;9.50;;;;;;;;;;6214649;23;20591;-88
2021/12/13 09:53:11;;;;;;;27.67;9.73;;;;;;;;;;6214192;23;20171;-90
2021/12/13 09:56:21;;;;;;;27.13;10.27;;;;;;;;;;6214085;23;20775;-88
2021/12/13 09:59:29;;;;;;;30.37;10.13;;;;;;;;;;6215307;23;20179;-90
2021/12/13 10:02:39;;;;;;;28.23;9.90;;;;;;;;;;6215889;23;20171;-88
2021/12/13 10:05:46;;;;;;;32.53;11.00;;;;;;;;;;6214714;23;20175;-87
2021/12/13 10:08:56;;;;;;;29.20;10.40;;;;;;;;;;6233132;23;20162;-91
2021/12/13 10:12:07;;;;;;;30.73;9.90;;;;;;;;;;6215989;23;20155;-89
2021/12/13 10:15:15;;;;;;;27.10;10.13;;;;;;;;;;6217835;23;20222;-88
2021/12/13 10:18:24;;;;;;;32.93;10.10;;;;;;;;;;6216213;23;20195;-86
2021/12/13 10:21:31;;;;;;;25.77;9.20;;;;;;;;;;6216902;23;20239;-87
2021/12/13 10:24:38;;;;;;;25.33;9.07;;;;;;;;;;6218146;23;20171;-90
2021/12/13 10:27:45;;;;;;;29.57;10.33;;;;;;;;;;6216663;23;20187;-87
2021/12/13 10:30:53;;;;;;;25.60;10.20;;;;;;;;;;6217205;23;20158;-87
2021/12/13 10:33:58;;;;;;;28.67;11.00;;;;;;;;;;6216250;23;20238;-89
2021/12/13 10:37:06;;;;;;;29.77;10.23;;;;;;;;;;6216971;23;20200;-90
2021/12/13 10:40:13;;;;;;;34.90;12.10;;;;;;;;;;6216097;23;20170;-87
2021/12/13 10:43:23;;;;;;;28.97;10.63;;;;;;;;;;6216170;23;20222;-87
2021/12/13 10:46:31;;;;;;;33.57;12.03;;;;;;;;;;6215842;23;20171;-89
2021/12/13 10:49:37;;;;;;;38.83;12.60;;;;;;;;;;6213735;23;20230;-89
2021/12/13 10:52:43;;;;;;;29.80;11.53;;;;;;;;;;6215737;23;20159;-86
2021/12/13 10:55:51;;;;;;;29.87;11.13;;;;;;;;;;6212111;23;20493;-88
2021/12/13 10:59:03;;;;;;;31.67;10.60;;;;;;;;;;6215287;23;20175;-88
2021/12/13 11:02:10;;;;;;;28.30;10.73;;;;;;;;;;6213886;23;20233;-88
2021/12/13 11:05:25;;;;;;;27.77;10.20;;;;;;;;;;6213155;23;20186;-91
2021/12/13 11:08:32;;;;;;;30.40;10.53;;;;;;;;;;6212880;23;20509;-86
2021/12/13 11:11:39;;;;;;;27.13;9.93;;;;;;;;;;6213399;23;20167;-90
2021/12/13 11:14:47;;;;;;;34.40;11.67;;;;;;;;;;6212805;23;20199;-88
2021/12/13 11:17:55;;;;;;;28.53;10.10;;;;;;;;;;6213235;23;20239;-88
2021/12/13 11:21:03;;;;;;;28.80;10.57;;;;;;;;;;6213138;23;20171;-89
2021/12/13 11:24:09;;;;;;;30.27;10.80;;;;;;;;;;6211800;23;20171;-88
2021/12/13 11:27:16;;;;;;;30.87;10.70;;;;;;;;;;6213003;23;20172;-90
2021/12/13 11:30:26;;;;;;;31.67;10.53;;;;;;;;;;6210939;23;20167;-88
2021/12/13 11:33:47;;;;;;;25.53;9.63;;;;;;;;;;6212106;23;20681;-92
2021/12/13 11:37:13;;;;;;;32.00;11.10;;;;;;;;;;6212943;23;20191;-91
2021/12/13 11:40:28;;;;;;;32.70;10.70;;;;;;;;;;6198914;23;20175;-89
2021/12/13 11:43:37;;;;;;;30.10;10.73;;;;;;;;;;6213319;23;20170;-89
2021/12/13 11:46:57;;;;;;;32.70;10.47;;;;;;;;;;6212458;23;20179;-89
2021/12/13 11:50:26;;;;;;;28.27;10.40;;;;;;;;;;6214938;23;20171;-88
2021/12/13 11:53:50;;;;;;;28.33;10.27;;;;;;;;;;6214350;23;20183;-87
2021/12/13 11:57:06;;;;;;;28.73;10.13;;;;;;;;;;6213768;23;20415;-89
2021/12/13 12:00:20;;;;;;;32.37;10.53;;;;;;;;;;6215292;23;20172;-90
2021/12/13 12:03:44;;;;;;;28.10;9.60;;;;;;;;;;6213399;23;20168;-88
2021/12/13 12:07:15;;;;;;;26.30;11.00;;;;;;;;;;6212550;23;20250;-85
2021/12/13 12:10:27;;;;;;;25.67;8.97;;;;;;;;;;6210718;23;20167;-91
2021/12/13 12:13:39;;;;;;;24.63;9.13;;;;;;;;;;6211780;23;20240;-89
2021/12/13 12:16:47;;;;;;;29.03;9.77;;;;;;;;;;6212846;23;20273;-91
2021/12/13 12:19:53;;;;;;;26.03;9.13;;;;;;;;;;6213506;23;20171;-89
2021/12/13 12:23:00;;;;;;;19.00;6.80;;;;;;;;;;6212308;23;20239;-90
2021/12/13 12:26:05;;;;;;;24.13;8.20;;;;;;;;;;6211628;23;20262;-90
2021/12/13 12:29:14;;;;;;;23.87;8.20;;;;;;;;;;6210785;23;20175;-89
2021/12/13 12:32:22;;;;;;;25.13;8.07;;;;;;;;;;6210839;23;20175;-90
2021/12/13 12:35:29;;;;;;;25.37;8.83;;;;;;;;;;6210973;23;20238;-88
2021/12/13 12:38:37;;;;;;;22.97;9.40;;;;;;;;;;6210277;23;20171;-88
2021/12/13 12:41:53;;;;;;;27.60;8.43;;;;;;;;;;6211504;23;20176;-87
2021/12/13 12:45:14;;;;;;;24.90;9.20;;;;;;;;;;6211253;23;20516;-88
2021/12/13 12:48:23;;;;;;;28.30;10.67;;;;;;;;;;6210669;23;20175;-90
2021/12/13 12:51:28;;;;;;;23.03;9.13;;;;;;;;;;6212807;23;20259;-89
2021/12/13 12:54:36;;;;;;;26.10;9.37;;;;;;;;;;6211739;23;20195;-89
2021/12/13 12:57:41;;;;;;;25.13;8.93;;;;;;;;;;6211750;23;20243;-89
2021/12/13 13:00:50;;;;;;;25.37;9.33;;;;;;;;;;6212049;23;20166;-86
2021/12/13 13:04:14;;;;;;;25.63;9.50;;;;;;;;;;6212080;23;20190;-88
2021/12/13 13:07:52;;;;;;;27.43;9.63;;;;;;;;;;6210864;23;20176;-88
2021/12/13 13:14:19;;;;;;;30.87;9.97;;;;;;;;;;6211972;23;20191;-91
2021/12/13 13:17:26;;;;;;;27.43;9.70;;;;;;;;;;6212557;23;20258;-90
2021/12/13 13:20:35;;;;;;;29.97;10.67;;;;;;;;;;6211804;23;20216;-87
2021/12/13 13:23:44;;;;;;;28.47;10.07;;;;;;;;;;6211937;23;20171;-86
2021/12/13 13:26:51;;;;;;;30.70;10.33;;;;;;;;;;6209849;23;21340;-89
2021/12/13 13:29:55;;;;;;;31.00;10.47;;;;;;;;;;6211381;23;20240;-87
2021/12/13 13:33:03;;;;;;;33.20;11.00;;;;;;;;;;6212494;23;20190;-89
2021/12/13 13:36:11;;;;;;;36.40;10.97;;;;;;;;;;6211660;23;20269;-88
2021/12/13 13:39:18;;;;;;;35.90;12.23;;;;;;;;;;6213297;23;20206;-89
2021/12/13 13:42:25;;;;;;;41.43;13.27;;;;;;;;;;6211953;23;20151;-88
2021/12/13 13:45:32;;;;;;;36.57;11.77;;;;;;;;;;6215736;23;20155;-88
2021/12/13 13:48:40;;;;;;;33.43;11.83;;;;;;;;;;6211003;23;20638;-89
2021/12/13 13:51:46;;;;;;;131.27;42.10;;;;;;;;;;6211022;23;20609;-90
2021/12/13 13:54:53;;;;;;;116.47;37.30;;;;;;;;;;6212830;23;20195;-88
2021/12/13 13:58:00;;;;;;;47.77;16.03;;;;;;;;;;6213410;23;20178;-88
2021/12/13 14:01:09;;;;;;;30.80;11.23;;;;;;;;;;6214043;23;20152;-88
2021/12/13 14:04:24;;;;;;;31.67;10.60;;;;;;;;;;6214396;23;20175;-92
2021/12/13 14:07:30;;;;;;;40.53;12.47;;;;;;;;;;6213463;23;20171;-91
2021/12/13 14:10:35;;;;;;;31.13;11.63;;;;;;;;;;6212134;23;20258;-89
2021/12/13 14:13:43;;;;;;;27.80;10.80;;;;;;;;;;6215067;23;20213;-90
2021/12/13 14:16:50;;;;;;;30.83;10.03;;;;;;;;;;6213289;23;20248;-90
2021/12/13 14:20:09;;;;;;;28.13;10.53;;;;;;;;;;6214602;23;20156;-87
2021/12/13 14:23:20;;;;;;;54.47;17.50;;;;;;;;;;6216605;23;20171;-91
2021/12/13 14:26:28;;;;;;;24.60;9.30;;;;;;;;;;6215150;23;20163;-90
2021/12/13 14:29:34;;;;;;;31.57;9.80;;;;;;;;;;6213298;23;20179;-88
2021/12/13 14:32:39;;;;;;;30.23;10.70;;;;;;;;;;6218976;23;20171;-90
2021/12/13 14:35:46;;;;;;;30.87;10.30;;;;;;;;;;6215046;23;20227;-89
2021/12/13 14:38:54;;;;;;;29.33;11.97;;;;;;;;;;6214195;23;20191;-90
2021/12/13 14:42:02;;;;;;;32.13;11.53;;;;;;;;;;6213709;23;20179;-89
2021/12/13 14:45:11;;;;;;;33.77;11.90;;;;;;;;;;6214740;23;20191;-89
2021/12/13 14:48:19;;;;;;;34.67;15.90;;;;;;;;;;6214542;23;20183;-89
2021/12/13 14:51:26;;;;;;;34.00;14.03;;;;;;;;;;6215259;23;20252;-88
2021/12/13 14:54:32;;;;;;;27.63;10.43;;;;;;;;;;6216852;23;20199;-92
2021/12/13 14:57:38;;;;;;;31.37;10.97;;;;;;;;;;6217424;23;20651;-88
2021/12/13 15:00:46;;;;;;;26.53;9.73;;;;;;;;;;6214420;23;20156;-88
2021/12/13 15:03:54;;;;;;;27.83;9.57;;;;;;;;;;6215421;23;20194;-88
2021/12/13 15:07:12;;;;;;;28.67;9.83;;;;;;;;;;6213875;23;20167;-90
2021/12/13 15:10:19;;;;;;;26.13;8.50;;;;;;;;;;6215720;23;20214;-90
2021/12/13 15:13:24;;;;;;;66.83;16.70;;;;;;;;;;6216132;23;20171;-91
2021/12/13 15:16:38;;;;;;;26.33;8.87;;;;;;;;;;6216198;23;20662;-88
2021/12/13 15:19:43;;;;;;;28.47;9.67;;;;;;;;;;6217874;23;20195;-89
2021/12/13 15:23:09;;;;;;;24.27;9.27;;;;;;;;;;6216448;23;20174;-89
2021/12/13 15:29:35;;;;;;;32.50;10.00;;;;;;;;;;6216322;23;20175;-89
2021/12/13 15:32:41;;;;;;;30.17;11.23;;;;;;;;;;6216871;23;20195;-88
2021/12/13 15:35:47;;;;;;;32.37;11.40;;;;;;;;;;6215336;23;20214;-89
2021/12/13 15:38:58;;;;;;;37.07;11.80;;;;;;;;;;6214978;23;20226;-89
2021/12/13 15:42:08;;;;;;;35.60;11.50;;;;;;;;;;6214636;23;20642;-90
2021/12/13 15:45:17;;;;;;;35.87;11.20;;;;;;;;;;6214840;23;20187;-87
2021/12/13 15:51:50;;;;;;;35.03;11.93;;;;;;;;;;6215316;23;20626;-89
2021/12/13 15:55:00;;;;;;;35.93;14.13;;;;;;;;;;6211348;23;20159;-87
2021/12/13 15:58:17;;;;;;;45.17;14.67;;;;;;;;;;6217108;23;20191;-91
2021/12/13 16:01:27;;;;;;;35.00;12.07;;;;;;;;;;6214793;23;20179;-88
2021/12/13 16:04:34;;;;;;;45.67;14.70;;;;;;;;;;6214487;23;20167;-86
2021/12/13 16:07:45;;;;;;;38.23;13.33;;;;;;;;;;6214815;23;20542;-88
2021/12/13 16:10:52;;;;;;;40.70;14.57;;;;;;;;;;6213215;23;20263;-88
2021/12/13 16:14:01;;;;;;;37.83;12.27;;;;;;;;;;6215582;23;20167;-86
2021/12/13 16:17:11;;;;;;;39.30;12.33;;;;;;;;;;6215489;23;20219;-89
2021/12/13 16:20:20;;;;;;;39.97;12.37;;;;;;;;;;6213159;23;20183;-91
2021/12/13 16:23:26;;;;;;;35.43;13.03;;;;;;;;;;6214794;23;20231;-86
2021/12/13 16:26:38;;;;;;;42.53;13.57;;;;;;;;;;6216034;23;20167;-86
2021/12/13 16:29:43;;;;;;;39.60;13.40;;;;;;;;;;6214641;23;20166;-86
2021/12/13 16:32:51;;;;;;;35.53;12.57;;;;;;;;;;6214814;23;20283;-89
2021/12/13 16:35:58;;;;;;;41.10;14.13;;;;;;;;;;6215802;23;20230;-88
2021/12/13 16:39:07;;;;;;;40.63;13.00;;;;;;;;;;6216094;23;20188;-87
2021/12/13 16:42:15;;;;;;;42.77;14.47;;;;;;;;;;6215289;23;20162;-91
2021/12/13 16:45:22;;;;;;;41.63;14.17;;;;;;;;;;6217559;23;20171;-88
2021/12/13 16:48:30;;;;;;;37.17;12.37;;;;;;;;;;6213399;23;20222;-88
2021/12/13 16:51:40;;;;;;;43.50;12.73;;;;;;;;;;6213272;23;20191;-89
2021/12/13 16:54:48;;;;;;;41.67;13.83;;;;;;;;;;6213501;23;20551;-89
2021/12/13 16:57:56;;;;;;;51.90;16.27;;;;;;;;;;6215097;23;20180;-91
2021/12/13 17:01:04;;;;;;;47.00;14.93;;;;;;;;;;6215188;23;20171;-89
2021/12/13 17:04:11;;;;;;;44.50;15.33;;;;;;;;;;6213332;23;20226;-87
2021/12/13 17:07:19;;;;;;;41.57;13.90;;;;;;;;;;6213010;23;20606;-88
2021/12/13 17:10:32;;;;;;;42.70;13.90;;;;;;;;;;6213176;23;20186;-88
2021/12/13 17:13:42;;;;;;;41.03;13.87;;;;;;;;;;6213760;23;20251;-89
2021/12/13 17:16:53;;;;;;;43.57;13.43;;;;;;;;;;6214197;23;20195;-88
2021/12/13 17:19:59;;;;;;;50.17;15.53;;;;;;;;;;6213294;23;20163;-87
2021/12/13 17:23:21;;;;;;;48.83;15.50;;;;;;;;;;6211594;23;20254;-88
2021/12/13 17:26:29;;;;;;;47.47;14.97;;;;;;;;;;6215570;23;20223;-88
2021/12/13 17:29:53;;;;;;;50.63;14.93;;;;;;;;;;6213812;23;20167;-91
2021/12/13 17:33:01;;;;;;;52.80;16.57;;;;;;;;;;6213911;23;20155;-89
2021/12/13 17:36:07;;;;;;;55.03;17.33;;;;;;;;;;6214669;23;20233;-88
2021/12/13 17:39:12;;;;;;;57.63;15.57;;;;;;;;;;6216593;23;20287;-90
2021/12/13 17:42:19;;;;;;;51.77;14.83;;;;;;;;;;6214104;23;20444;-90
2021/12/13 17:45:29;;;;;;;46.67;14.93;;;;;;;;;;6215258;23;20170;-92
2021/12/13 17:49:07;;;;;;;44.47;14.17;;;;;;;;;;6212219;23;20214;-92
2021/12/13 17:52:12;;;;;;;46.60;14.03;;;;;;;;;;6214804;23;20170;-87
2021/12/13 17:55:18;;;;;;;44.43;13.93;;;;;;;;;;6215845;23;20163;-90
2021/12/13 17:58:27;;;;;;;66.00;17.17;;;;;;;;;;6231708;23;20166;-87
2021/12/13 18:01:36;;;;;;;57.87;15.77;;;;;;;;;;6210438;23;20222;-89
2021/12/13 18:04:52;;;;;;;67.47;17.53;;;;;;;;;;6211964;23;20155;-90
2021/12/13 18:08:06;;;;;;;67.30;15.80;;;;;;;;;;6210083;23;20306;-90
2021/12/13 18:11:11;;;;;;;74.07;15.63;;;;;;;;;;6211018;23;20194;-86
2021/12/13 18:14:21;;;;;;;60.60;16.67;;;;;;;;;;6211411;23;20251;-88
2021/12/13 18:17:31;;;;;;;62.43;16.57;;;;;;;;;;6209342;23;20187;-89
2021/12/13 18:20:39;;;;;;;59.03;15.87;;;;;;;;;;6210296;23;20183;-90
2021/12/13 18:23:46;;;;;;;76.23;16.60;;;;;;;;;;6212998;23;20240;-89
2021/12/13 18:26:55;;;;;;;54.53;14.40;;;;;;;;;;6212296;23;20488;-88
2021/12/13 18:30:02;;;;;;;66.30;15.93;;;;;;;;;;6213076;23;20287;-91
2021/12/13 18:33:10;;;;;;;58.77;16.60;;;;;;;;;;6213720;23;20298;-87
2021/12/13 18:36:23;;;;;;;69.07;17.97;;;;;;;;;;6212747;23;20191;-88
2021/12/13 18:39:33;;;;;;;67.53;16.20;;;;;;;;;;6214840;23;20559;-87
2021/12/13 18:42:41;;;;;;;84.43;17.10;;;;;;;;;;6231772;23;20167;-90
2021/12/13 18:45:48;;;;;;;71.07;18.43;;;;;;;;;;6213399;23;20207;-86
2021/12/13 18:48:55;;;;;;;84.07;17.93;;;;;;;;;;6234043;23;20168;-87
2021/12/13 18:52:03;;;;;;;72.67;16.77;;;;;;;;;;6214278;23;20183;-86
2021/12/13 18:55:11;;;;;;;57.80;16.10;;;;;;;;;;6213345;23;20251;-90
2021/12/13 18:58:19;;;;;;;64.50;16.07;;;;;;;;;;6213950;23;20229;-90
2021/12/13 19:01:29;;;;;;;79.83;17.57;;;;;;;;;;6214414;23;20175;-87
2021/12/13 19:04:38;;;;;;;78.67;16.90;;;;;;;;;;6214445;23;20166;-87
2021/12/13 19:07:47;;;;;;;84.80;18.57;;;;;;;;;;6213027;23;20727;-89
2021/12/13 19:10:54;;;;;;;75.07;17.90;;;;;;;;;;6215255;23;20191;-90
2021/12/13 19:14:00;;;;;;;87.73;19.00;;;;;;;;;;6214861;23;20208;-89
2021/12/13 19:17:09;;;;;;;76.80;18.80;;;;;;;;;;6214085;23;20234;-87
2021/12/13 19:20:25;;;;;;;75.17;18.50;;;;;;;;;;6213614;23;20246;-90
2021/12/13 19:23:34;;;;;;;80.33;19.67;;;;;;;;;;6213586;23;20175;-88
2021/12/13 19:26:40;;;;;;;74.67;17.83;;;;;;;;;;6213782;23;20504;-87
2021/12/13 19:29:51;;;;;;;63.33;18.33;;;;;;;;;;6215008;23;20171;-90
2021/12/13 19:32:59;;;;;;;72.83;20.27;;;;;;;;;;6214390;23;20174;-89
2021/12/13 19:36:16;;;;;;;62.63;18.93;;;;;;;;;;6212791;23;20175;-89